Time;durP1;ratioP1;P1;durP2;ratioP2;P2;SDS_P1;SDS_P2;PMS_P1;PMS_P2;Temp;Humidity;BMP_temperature;BMP_pressure;BME280_temperature;BME280_humidity;BME280_pressure;Samples;Min_cycle;Max_cycle;Signal;HPM_P1;HPM_P2
2023/07/15 00:01:09;;;;;;;9.50;6.70;;;18.50;99.90;;;;;;5107499;28;20115;-78
2023/07/15 00:03:35;;;;;;;9.45;6.35;;;18.50;99.90;;;;;;5105141;28;20040;-77
2023/07/15 00:06:01;;;;;;;7.85;5.88;;;18.50;99.90;;;;;;5104619;28;20027;-77
2023/07/15 00:08:27;;;;;;;12.70;6.97;;;18.50;99.90;;;;;;5108423;28;20042;-72
2023/07/15 00:10:54;;;;;;;10.63;6.53;;;18.40;99.90;;;;;;5089365;28;20383;-78
2023/07/15 00:13:20;;;;;;;9.80;6.63;;;18.30;99.90;;;;;;5108947;28;20111;-76
2023/07/15 00:15:50;;;;;;;10.93;6.70;;;18.30;99.90;;;;;;5107723;28;20106;-77
2023/07/15 00:18:16;;;;;;;10.00;6.47;;;18.20;99.90;;;;;;5108208;28;20504;-74
2023/07/15 00:20:43;;;;;;;8.38;5.90;;;18.10;99.90;;;;;;5092076;28;20089;-74
2023/07/15 00:23:26;;;;;;;10.27;6.50;;;18.10;99.90;;;;;;5093142;28;20038;-76
2023/07/15 00:25:53;;;;;;;9.88;6.68;;;18.10;99.90;;;;;;5089030;28;20031;-76
2023/07/15 00:28:20;;;;;;;8.30;6.15;;;18.10;99.90;;;;;;5108838;28;20474;-77
2023/07/15 00:30:48;;;;;;;9.75;5.97;;;18.00;99.90;;;;;;5103157;28;20023;-77
2023/07/15 00:33:15;;;;;;;11.10;6.38;;;18.10;99.90;;;;;;5096640;28;20031;-79
2023/07/15 00:35:42;;;;;;;8.43;6.05;;;18.10;99.90;;;;;;5087274;28;20036;-79
2023/07/15 00:38:08;;;;;;;10.15;6.20;;;18.10;99.90;;;;;;5090166;28;20032;-79
2023/07/15 00:40:42;;;;;;;8.65;6.55;;;18.10;99.90;;;;;;5098249;28;20094;-76
2023/07/15 00:43:45;;;;;;;8.75;6.32;;;18.10;99.90;;;;;;5089126;28;20024;-77
2023/07/15 00:46:26;;;;;;;12.90;6.40;;;18.10;99.90;;;;;;5100879;28;20039;-77
2023/07/15 00:49:10;;;;;;;11.32;6.80;;;18.20;99.90;;;;;;5087744;28;20087;-78
2023/07/15 00:51:43;;;;;;;9.32;6.18;;;18.10;99.90;;;;;;5103250;28;20426;-78
2023/07/15 00:54:10;;;;;;;10.32;6.60;;;18.10;99.90;;;;;;5108068;28;20126;-77
2023/07/15 00:56:38;;;;;;;8.80;6.32;;;18.00;99.90;;;;;;5105498;28;20027;-76
2023/07/15 00:59:04;;;;;;;10.75;5.82;;;17.90;99.90;;;;;;5104530;28;20066;-77
2023/07/15 01:01:30;;;;;;;8.90;6.75;;;17.80;99.90;;;;;;5093787;28;20056;-74
2023/07/15 01:03:56;;;;;;;9.90;6.22;;;17.80;99.90;;;;;;5105793;28;20066;-77
2023/07/15 01:06:22;;;;;;;11.40;6.40;;;17.70;99.90;;;;;;5108417;28;20464;-79
2023/07/15 01:08:48;;;;;;;9.93;6.13;;;17.70;99.90;;;;;;5110346;28;20082;-78
2023/07/15 01:11:14;;;;;;;8.73;6.10;;;17.60;99.90;;;;;;5097787;28;20067;-76
2023/07/15 01:13:39;;;;;;;11.77;6.78;;;17.60;99.90;;;;;;5103203;28;20805;-78
2023/07/15 01:16:05;;;;;;;7.72;6.20;;;17.50;99.90;;;;;;5089525;28;20499;-78
2023/07/15 01:18:31;;;;;;;9.45;6.05;;;17.40;99.90;;;;;;5093487;28;20067;-72
2023/07/15 01:20:59;;;;;;;7.80;6.22;;;17.50;99.90;;;;;;5094871;28;20028;-79
2023/07/15 01:23:25;;;;;;;10.85;6.60;;;17.40;99.90;;;;;;5105748;28;20042;-74
2023/07/15 01:25:51;;;;;;;11.75;6.68;;;17.30;99.90;;;;;;5102493;28;20039;-77
2023/07/15 01:28:17;;;;;;;10.57;6.65;;;17.30;99.90;;;;;;5100091;28;20032;-77
2023/07/15 01:30:42;;;;;;;10.25;6.38;;;17.30;99.90;;;;;;5109097;28;20027;-78
2023/07/15 01:33:08;;;;;;;11.82;6.65;;;17.20;99.90;;;;;;5112098;28;20043;-78
2023/07/15 01:35:33;;;;;;;9.70;6.35;;;17.20;99.90;;;;;;5110440;28;20036;-73
2023/07/15 01:37:59;;;;;;;13.85;6.20;;;17.10;99.90;;;;;;5099466;28;20050;-78
2023/07/15 01:40:24;;;;;;;10.27;6.45;;;17.20;99.90;;;;;;5109680;28;20027;-77
2023/07/15 01:42:50;;;;;;;8.60;6.55;;;17.10;99.90;;;;;;5097824;28;20667;-79
2023/07/15 01:45:16;;;;;;;12.15;7.40;;;17.10;99.90;;;;;;5098635;28;20024;-78
2023/07/15 01:47:41;;;;;;;11.77;7.20;;;17.10;99.90;;;;;;5110583;28;20039;-79
2023/07/15 01:50:08;;;;;;;10.23;7.22;;;17.10;99.90;;;;;;5109866;28;21901;-79
2023/07/15 01:52:34;;;;;;;8.77;7.00;;;17.10;99.90;;;;;;5110501;28;20032;-75
2023/07/15 01:54:59;;;;;;;10.48;7.43;;;17.20;99.90;;;;;;5108963;28;20027;-77
2023/07/15 01:57:26;;;;;;;10.80;7.22;;;17.20;99.90;;;;;;5107960;28;20046;-76
2023/07/15 01:59:57;;;;;;;9.20;6.63;;;17.20;99.90;;;;;;5109719;28;20031;-78
2023/07/15 02:02:26;;;;;;;13.27;7.57;;;17.20;99.90;;;;;;5103166;28;20391;-78
2023/07/15 02:04:52;;;;;;;12.20;7.40;;;17.30;99.90;;;;;;5073025;28;20023;-78
2023/07/15 02:07:18;;;;;;;12.38;7.03;;;17.20;99.90;;;;;;5107217;28;20361;-78
2023/07/15 02:09:43;;;;;;;11.60;7.15;;;17.10;99.90;;;;;;5107223;28;20031;-76
2023/07/15 02:12:09;;;;;;;11.93;6.90;;;17.10;99.90;;;;;;5097487;28;20080;-77
2023/07/15 02:14:38;;;;;;;10.20;7.35;;;17.10;99.90;;;;;;5083842;28;20028;-75
2023/07/15 02:17:04;;;;;;;10.00;6.75;;;17.00;99.90;;;;;;5101367;28;20199;-78
2023/07/15 02:19:33;;;;;;;10.00;6.97;;;17.00;99.90;;;;;;5111249;28;20036;-78
2023/07/15 02:21:59;;;;;;;13.40;7.63;;;16.90;99.90;;;;;;5106786;28;20040;-76
2023/07/15 02:24:25;;;;;;;9.48;6.95;;;16.80;99.90;;;;;;5109728;28;20024;-77
2023/07/15 02:26:51;;;;;;;10.25;7.05;;;16.80;99.90;;;;;;5110201;28;20028;-78
2023/07/15 02:29:17;;;;;;;10.40;7.22;;;16.70;99.90;;;;;;5111331;28;20039;-79
2023/07/15 02:31:42;;;;;;;11.75;6.97;;;16.60;99.90;;;;;;5104180;28;20448;-79
2023/07/15 02:34:08;;;;;;;9.85;6.80;;;16.60;99.90;;;;;;5111204;28;20515;-78
2023/07/15 02:36:35;;;;;;;9.32;6.50;;;16.60;99.90;;;;;;5109242;28;20464;-72
2023/07/15 02:39:02;;;;;;;11.82;6.60;;;16.50;99.90;;;;;;5102184;28;20036;-79
2023/07/15 02:41:27;;;;;;;12.52;6.47;;;16.50;99.90;;;;;;5108073;28;20032;-79
2023/07/15 02:43:53;;;;;;;10.27;6.47;;;16.60;99.90;;;;;;5110119;28;20232;-78
2023/07/15 02:46:19;;;;;;;8.07;6.03;;;16.60;99.90;;;;;;5109149;28;20472;-77
2023/07/15 02:48:45;;;;;;;9.50;6.93;;;16.60;99.90;;;;;;5097759;28;20051;-77
2023/07/15 02:51:10;;;;;;;10.27;7.05;;;16.50;99.90;;;;;;5103664;28;20027;-77
2023/07/15 02:53:36;;;;;;;11.20;6.70;;;16.50;99.90;;;;;;5109421;28;20035;-74
2023/07/15 02:56:02;;;;;;;10.07;7.07;;;16.50;99.90;;;;;;5100450;28;20135;-77
2023/07/15 02:58:27;;;;;;;10.60;6.63;;;16.40;99.90;;;;;;5125415;27;20035;-77
2023/07/15 03:00:53;;;;;;;9.00;6.80;;;16.40;99.90;;;;;;5107140;28;20028;-79
2023/07/15 03:03:20;;;;;;;11.80;7.10;;;16.40;99.90;;;;;;5111152;28;20426;-78
2023/07/15 03:05:54;;;;;;;10.18;7.18;;;16.40;99.90;;;;;;5102184;28;20034;-78
2023/07/15 03:08:21;;;;;;;9.85;6.63;;;16.40;99.90;;;;;;5101495;28;20050;-77
2023/07/15 03:10:46;;;;;;;13.52;6.40;;;16.40;99.90;;;;;;5093162;28;20024;-78
2023/07/15 03:13:12;;;;;;;11.65;7.38;;;16.40;99.90;;;;;;5108870;28;20027;-79
2023/07/15 03:15:39;;;;;;;11.82;7.18;;;16.50;99.90;;;;;;5106090;28;20047;-74
2023/07/15 03:18:05;;;;;;;10.02;7.43;;;16.40;99.90;;;;;;5110867;28;20039;-79
2023/07/15 03:20:31;;;;;;;10.45;7.05;;;16.50;99.90;;;;;;5108175;28;20032;-78
2023/07/15 03:22:57;;;;;;;13.10;6.40;;;16.40;99.90;;;;;;5108156;28;20027;-78
2023/07/15 03:25:23;;;;;;;8.70;6.55;;;16.30;99.90;;;;;;5103188;28;20081;-79
2023/07/15 03:27:50;;;;;;;10.48;6.63;;;16.40;99.90;;;;;;5096078;28;20047;-78
2023/07/15 03:30:16;;;;;;;10.00;6.57;;;16.40;99.90;;;;;;5106375;28;20063;-77
2023/07/15 03:32:42;;;;;;;9.45;6.80;;;16.40;99.90;;;;;;5107109;28;20062;-79
2023/07/15 03:35:09;;;;;;;10.02;6.70;;;16.20;99.90;;;;;;5108920;28;20493;-77
2023/07/15 03:37:36;;;;;;;8.85;6.30;;;16.10;99.90;;;;;;5091670;28;20073;-80
2023/07/15 03:40:07;;;;;;;10.02;7.20;;;16.10;99.90;;;;;;5098455;28;20464;-78
2023/07/15 03:42:34;;;;;;;10.60;6.93;;;16.10;99.90;;;;;;5090285;28;21265;-77
2023/07/15 03:44:59;;;;;;;9.80;6.90;;;16.00;99.90;;;;;;5107093;28;20020;-78
2023/07/15 03:47:25;;;;;;;11.98;6.70;;;16.00;99.90;;;;;;5089547;28;20411;-78
2023/07/15 03:49:51;;;;;;;9.63;7.03;;;15.90;99.90;;;;;;5089825;28;20043;-79
2023/07/15 03:52:16;;;;;;;11.40;6.72;;;15.90;99.90;;;;;;5089576;28;20468;-76
2023/07/15 03:54:43;;;;;;;9.57;6.75;;;16.00;99.90;;;;;;5107502;28;20040;-77
2023/07/15 03:57:09;;;;;;;9.23;6.78;;;16.00;99.90;;;;;;5095411;28;20032;-77
2023/07/15 03:59:34;;;;;;;12.13;6.78;;;16.00;99.90;;;;;;5092065;28;20040;-75
2023/07/15 04:02:00;;;;;;;11.55;7.00;;;16.10;99.90;;;;;;5102594;28;20096;-77
2023/07/15 04:04:26;;;;;;;10.43;6.70;;;16.10;99.90;;;;;;5088993;28;20036;-79
2023/07/15 04:06:52;;;;;;;9.48;7.32;;;16.20;99.90;;;;;;5107311;28;20027;-80
2023/07/15 04:09:17;;;;;;;9.85;7.20;;;16.20;99.90;;;;;;5104016;28;20035;-77
2023/07/15 04:11:43;;;;;;;12.13;7.47;;;16.30;99.90;;;;;;5081463;28;20031;-78
2023/07/15 04:14:09;;;;;;;12.60;7.13;;;16.40;99.90;;;;;;5109806;28;20035;-78
2023/07/15 04:16:35;;;;;;;12.00;6.85;;;16.40;99.90;;;;;;5103073;27;20046;-78
2023/07/15 04:19:01;;;;;;;16.10;7.13;;;16.50;99.90;;;;;;5102661;28;20023;-79
2023/07/15 04:21:26;;;;;;;9.15;7.07;;;16.50;99.90;;;;;;5088526;28;20032;-77
2023/07/15 04:23:52;;;;;;;10.77;6.45;;;16.50;99.90;;;;;;5090829;28;20436;-80
2023/07/15 04:26:25;;;;;;;10.43;7.00;;;16.60;99.90;;;;;;5103539;28;20528;-74
2023/07/15 04:28:51;;;;;;;10.40;7.07;;;16.60;99.90;;;;;;5106241;28;20400;-78
2023/07/15 04:31:17;;;;;;;10.43;6.80;;;16.70;99.90;;;;;;5108770;28;20020;-78
2023/07/15 04:33:48;;;;;;;9.45;7.20;;;16.80;99.90;;;;;;5086689;28;20468;-73
2023/07/15 04:36:14;;;;;;;10.55;6.82;;;17.10;99.90;;;;;;5097573;28;20080;-76
2023/07/15 04:38:40;;;;;;;10.23;6.57;;;17.20;99.90;;;;;;5101892;28;20097;-73
2023/07/15 04:41:06;;;;;;;9.50;6.40;;;17.30;99.90;;;;;;5100756;28;20023;-73
2023/07/15 04:43:32;;;;;;;10.27;7.20;;;17.50;99.90;;;;;;5105923;28;20023;-73
2023/07/15 04:45:58;;;;;;;12.23;7.35;;;17.60;99.90;;;;;;5104202;28;20040;-72
2023/07/15 04:48:24;;;;;;;12.35;6.55;;;17.60;99.90;;;;;;5098059;28;20051;-72
2023/07/15 04:50:50;;;;;;;9.32;6.82;;;17.50;99.90;;;;;;5095663;28;20036;-73
2023/07/15 04:53:18;;;;;;;9.98;7.50;;;17.50;99.90;;;;;;5107913;28;20051;-73
2023/07/15 04:55:48;;;;;;;11.30;6.35;;;17.60;99.90;;;;;;5103655;28;20035;-72
2023/07/15 04:58:18;;;;;;;11.33;6.13;;;17.70;99.90;;;;;;5101759;28;20070;-72
2023/07/15 05:00:48;;;;;;;9.65;6.32;;;17.80;99.90;;;;;;5105725;28;20118;-72
2023/07/15 05:03:14;;;;;;;8.65;6.28;;;17.90;99.90;;;;;;5107083;28;20107;-73
2023/07/15 05:05:40;;;;;;;9.43;6.55;;;17.90;99.90;;;;;;5109597;28;20135;-72
2023/07/15 05:08:18;;;;;;;11.43;6.22;;;18.10;99.90;;;;;;5102941;28;20077;-73
2023/07/15 05:10:44;;;;;;;10.18;7.18;;;18.30;99.90;;;;;;5086715;28;20763;-70
2023/07/15 05:13:10;;;;;;;15.60;8.85;;;18.50;99.90;;;;;;5101509;28;20032;-73
2023/07/15 05:15:36;;;;;;;11.88;8.50;;;18.60;99.90;;;;;;5104311;28;20369;-73
2023/07/15 05:18:04;;;;;;;12.32;7.88;;;18.60;99.90;;;;;;5099582;28;20071;-73
2023/07/15 05:20:31;;;;;;;13.60;7.57;;;18.60;99.90;;;;;;5098616;28;20047;-72
2023/07/15 05:22:57;;;;;;;12.02;7.25;;;18.70;99.90;;;;;;5101905;28;20039;-72
2023/07/15 05:25:23;;;;;;;7.93;5.93;;;18.90;99.90;;;;;;5103394;28;20031;-72
2023/07/15 05:27:49;;;;;;;8.32;6.43;;;19.20;99.90;;;;;;5102129;28;20031;-75
2023/07/15 05:30:15;;;;;;;9.60;6.50;;;19.50;99.90;;;;;;5100956;28;20439;-72
2023/07/15 05:32:40;;;;;;;7.65;5.93;;;19.70;99.90;;;;;;5104415;28;20043;-72
2023/07/15 05:35:06;;;;;;;9.05;6.10;;;19.60;99.90;;;;;;5105517;28;20100;-71
2023/07/15 05:37:32;;;;;;;10.88;6.13;;;19.70;99.90;;;;;;5090146;28;20527;-72
2023/07/15 05:39:57;;;;;;;16.55;6.28;;;19.90;99.90;;;;;;5097240;28;20052;-71
2023/07/15 05:42:23;;;;;;;7.90;6.05;;;20.20;99.90;;;;;;5106284;28;20028;-72
2023/07/15 05:44:49;;;;;;;9.88;6.35;;;20.20;99.90;;;;;;5102872;28;20118;-71
2023/07/15 05:47:14;;;;;;;10.38;5.90;;;20.30;99.90;;;;;;5089739;28;20775;-72
2023/07/15 05:49:40;;;;;;;10.45;6.68;;;20.40;99.90;;;;;;5094279;28;20044;-72
2023/07/15 05:52:06;;;;;;;8.85;5.90;;;20.40;99.90;;;;;;5107707;28;20026;-71
2023/07/15 05:54:32;;;;;;;8.82;5.55;;;20.50;99.90;;;;;;5108503;28;20023;-73
2023/07/15 05:56:57;;;;;;;14.80;6.35;;;20.50;99.90;;;;;;5107224;28;20557;-73
2023/07/15 05:59:23;;;;;;;8.63;5.55;;;20.60;99.90;;;;;;5079504;28;20040;-72
2023/07/15 06:01:49;;;;;;;7.40;5.38;;;20.90;99.90;;;;;;5107341;28;20046;-71
2023/07/15 06:04:14;;;;;;;7.95;5.55;;;21.10;99.90;;;;;;5106978;28;20035;-71
2023/07/15 06:06:40;;;;;;;8.23;5.72;;;21.20;99.90;;;;;;5084047;28;20392;-71
2023/07/15 06:09:06;;;;;;;10.50;5.82;;;21.40;99.90;;;;;;5100354;28;20130;-73
2023/07/15 06:11:32;;;;;;;8.93;5.75;;;21.60;99.90;;;;;;5108338;28;20067;-71
2023/07/15 06:14:00;;;;;;;9.05;5.50;;;21.90;99.90;;;;;;5104798;28;20051;-73
2023/07/15 06:16:26;;;;;;;15.75;5.80;;;22.00;99.90;;;;;;5110427;28;20031;-74
2023/07/15 06:18:52;;;;;;;6.88;5.35;;;22.20;99.90;;;;;;5108373;28;20399;-73
2023/07/15 06:21:18;;;;;;;7.78;5.45;;;22.30;99.90;;;;;;5108150;28;20035;-72
2023/07/15 06:23:43;;;;;;;9.52;5.25;;;22.40;99.90;;;;;;5110068;28;20028;-73
2023/07/15 06:26:09;;;;;;;8.95;5.00;;;22.70;99.90;;;;;;5105272;28;20116;-72
2023/07/15 06:28:35;;;;;;;6.65;4.80;;;22.90;99.90;;;;;;5104258;28;20048;-74
2023/07/15 06:31:06;;;;;;;10.18;4.97;;;23.10;99.90;;;;;;5105523;28;20067;-74
2023/07/15 06:33:33;;;;;;;6.18;4.65;;;23.40;99.90;;;;;;5111156;28;20030;-74
2023/07/15 06:35:59;;;;;;;5.78;4.70;;;23.50;99.90;;;;;;5110018;28;20115;-74
2023/07/15 06:38:27;;;;;;;6.88;4.90;;;23.80;99.90;;;;;;5100080;28;20039;-73
2023/07/15 06:40:53;;;;;;;6.30;4.75;;;24.00;99.90;;;;;;5105210;28;20106;-72
2023/07/15 06:43:19;;;;;;;5.88;4.70;;;24.30;99.90;;;;;;5091072;28;20044;-72
2023/07/15 06:45:45;;;;;;;8.75;4.45;;;24.50;99.90;;;;;;5103960;28;20042;-72
2023/07/15 06:48:11;;;;;;;5.25;4.18;;;24.70;99.90;;;;;;5098925;28;20043;-73
2023/07/15 06:50:37;;;;;;;8.85;4.00;;;25.00;99.90;;;;;;5098178;28;20031;-74
2023/07/15 06:53:03;;;;;;;8.70;3.55;;;25.40;99.90;;;;;;5110590;28;20027;-73
2023/07/15 06:55:28;;;;;;;8.95;3.95;;;25.70;99.90;;;;;;5104896;28;20040;-73
2023/07/15 06:57:54;;;;;;;4.70;3.60;;;26.00;99.90;;;;;;5101965;28;20431;-71
2023/07/15 07:00:22;;;;;;;6.45;3.58;;;26.30;99.90;;;;;;5108113;28;20039;-74
2023/07/15 07:02:48;;;;;;;9.88;3.63;;;26.50;99.90;;;;;;5106356;28;20027;-72
2023/07/15 07:05:15;;;;;;;4.57;3.50;;;26.70;99.90;;;;;;5108379;28;20167;-74
2023/07/15 07:07:41;;;;;;;5.43;3.55;;;26.80;99.90;;;;;;5098326;28;20024;-73
2023/07/15 07:10:08;;;;;;;8.63;3.85;;;26.80;99.90;;;;;;5108278;28;20035;-74
2023/07/15 07:12:33;;;;;;;6.45;4.10;;;27.00;99.90;;;;;;5109045;28;20445;-74
2023/07/15 07:14:59;;;;;;;6.13;3.50;;;27.10;99.90;;;;;;5105549;28;20122;-73
2023/07/15 07:17:25;;;;;;;4.45;3.25;;;27.20;97.40;;;;;;5109557;28;20392;-73
2023/07/15 07:19:50;;;;;;;7.97;3.35;;;27.30;97.30;;;;;;5089986;28;20069;-72
2023/07/15 07:22:16;;;;;;;8.10;3.38;;;27.40;95.90;;;;;;5112542;27;20031;-72
2023/07/15 07:24:41;;;;;;;4.88;3.30;;;27.60;96.50;;;;;;5098069;28;20032;-72
2023/07/15 07:27:07;;;;;;;9.45;3.45;;;27.70;94.30;;;;;;5113269;27;20046;-72
2023/07/15 07:29:34;;;;;;;8.15;3.33;;;27.90;93.40;;;;;;5103754;27;20523;-73
2023/07/15 07:32:00;;;;;;;3.85;3.03;;;28.10;93.50;;;;;;5101725;28;20100;-72
2023/07/15 07:34:26;;;;;;;9.77;3.25;;;28.30;92.00;;;;;;5105619;28;20069;-71
2023/07/15 07:36:51;;;;;;;5.40;3.40;;;28.40;90.60;;;;;;5108509;28;20110;-71
2023/07/15 07:39:17;;;;;;;5.72;3.25;;;28.60;91.20;;;;;;5102620;27;20031;-72
2023/07/15 07:41:42;;;;;;;4.68;3.30;;;28.70;88.60;;;;;;5101703;28;20020;-73
2023/07/15 07:44:11;;;;;;;9.15;3.03;;;28.80;86.10;;;;;;5090396;28;20468;-72
2023/07/15 07:46:36;;;;;;;6.72;3.03;;;29.00;87.40;;;;;;5100929;28;20035;-72
2023/07/15 07:49:02;;;;;;;4.93;3.35;;;29.20;85.60;;;;;;5099479;28;20044;-77
2023/07/15 07:51:28;;;;;;;5.82;3.58;;;29.10;83.90;;;;;;5106557;27;20033;-79
2023/07/15 07:53:54;;;;;;;7.53;3.20;;;29.20;84.10;;;;;;5107783;28;20550;-74
2023/07/15 07:56:20;;;;;;;6.63;3.40;;;29.30;85.60;;;;;;5106070;28;20035;-78
2023/07/15 07:58:46;;;;;;;7.75;3.20;;;29.50;83.10;;;;;;5109874;28;20033;-80
2023/07/15 08:01:12;;;;;;;6.00;3.20;;;29.50;80.60;;;;;;5107268;27;20020;-76
2023/07/15 08:03:38;;;;;;;8.40;3.28;;;29.50;78.10;;;;;;5097616;28;20023;-76
2023/07/15 08:06:04;;;;;;;15.13;3.67;;;29.50;78.40;;;;;;5109937;28;20053;-75
2023/07/15 08:08:30;;;;;;;6.30;3.60;;;29.50;79.00;;;;;;5090083;28;20044;-76
2023/07/15 08:10:56;;;;;;;7.00;3.10;;;29.60;80.80;;;;;;5107058;27;20032;-75
2023/07/15 08:13:21;;;;;;;9.20;3.00;;;29.80;79.50;;;;;;5111866;27;20028;-79
2023/07/15 08:15:47;;;;;;;14.60;3.13;;;30.10;78.00;;;;;;5107543;28;20048;-76
2023/07/15 08:18:13;;;;;;;4.70;2.97;;;30.20;76.20;;;;;;5107522;28;20035;-80
2023/07/15 08:20:42;;;;;;;4.30;3.15;;;30.30;76.50;;;;;;5108808;28;20547;-73
2023/07/15 08:23:08;;;;;;;4.68;3.00;;;30.20;74.30;;;;;;5103536;27;20028;-77
2023/07/15 08:25:36;;;;;;;5.75;3.38;;;30.30;75.90;;;;;;5108672;28;20313;-76
2023/07/15 08:28:01;;;;;;;4.15;3.03;;;30.40;75.40;;;;;;5102656;28;20053;-75
2023/07/15 08:30:27;;;;;;;5.75;3.30;;;30.30;73.80;;;;;;5110407;27;20023;-74
2023/07/15 08:32:52;;;;;;;5.07;3.13;;;30.30;72.40;;;;;;5115408;27;20480;-77
2023/07/15 08:35:18;;;;;;;5.85;3.10;;;30.30;74.00;;;;;;5102895;28;20034;-76
2023/07/15 08:37:44;;;;;;;13.25;3.42;;;30.30;71.60;;;;;;5107798;28;20035;-77
2023/07/15 08:40:13;;;;;;;7.63;3.65;;;30.50;74.10;;;;;;5107045;28;20112;-79
2023/07/15 08:42:40;;;;;;;6.75;3.80;;;30.60;72.70;;;;;;5108841;28;20019;-77
2023/07/15 08:45:06;;;;;;;5.15;3.13;;;30.70;73.60;;;;;;5108617;28;20060;-78
2023/07/15 08:47:31;;;;;;;5.30;3.15;;;30.80;71.60;;;;;;5109395;28;20044;-76
2023/07/15 08:50:02;;;;;;;5.55;3.45;;;30.80;71.60;;;;;;5108263;28;20035;-75
2023/07/15 08:52:29;;;;;;;;;;;30.80;67.60;;;;;;5107736;28;20053;-76
2023/07/15 08:54:54;;;;;;;9.60;3.38;;;30.80;70.70;;;;;;5105977;28;19965;-75
2023/07/15 08:57:22;;;;;;;10.63;3.53;;;30.90;69.40;;;;;;5117521;28;20027;-77
2023/07/15 08:59:52;;;;;;;4.95;3.33;;;30.80;69.00;;;;;;5097479;28;20032;-78
2023/07/15 09:02:18;;;;;;;4.35;3.30;;;30.80;67.30;;;;;;5099634;28;20027;-79
2023/07/15 09:04:44;;;;;;;6.68;3.28;;;30.80;68.50;;;;;;5109623;28;20031;-80
2023/07/15 09:07:09;;;;;;;8.55;3.50;;;31.00;69.90;;;;;;5095141;28;20742;-78
2023/07/15 09:09:37;;;;;;;8.45;3.50;;;31.00;67.20;;;;;;5106824;28;20041;-76
2023/07/15 09:12:06;;;;;;;3.72;3.05;;;31.00;69.00;;;;;;5104448;28;20031;-78
2023/07/15 09:14:31;;;;;;;10.95;4.32;;;31.10;68.60;;;;;;5113513;28;20051;-78
2023/07/15 09:16:59;;;;;;;7.68;3.70;;;31.30;68.50;;;;;;5107176;28;20444;-74
2023/07/15 09:19:27;;;;;;;9.40;3.90;;;31.40;67.00;;;;;;5104464;28;20392;-77
2023/07/15 09:22:13;;;;;;;6.32;3.45;;;31.50;67.70;;;;;;5128342;28;20019;-79
2023/07/15 09:24:39;;;;;;;7.63;3.30;;;31.50;65.40;;;;;;5113475;28;20035;-76
2023/07/15 09:27:06;;;;;;;6.50;3.30;;;31.60;66.80;;;;;;5108605;28;20027;-77
2023/07/15 09:29:33;;;;;;;5.55;3.28;;;31.70;65.30;;;;;;5113084;27;20518;-75
2023/07/15 09:31:59;;;;;;;5.93;3.20;;;31.80;64.10;;;;;;5133043;27;20683;-75
2023/07/15 09:34:25;;;;;;;5.07;3.30;;;31.80;63.70;;;;;;5133235;27;20487;-75
2023/07/15 09:36:52;;;;;;;5.97;3.30;;;31.90;66.60;;;;;;5101435;27;20035;-76
2023/07/15 09:39:19;;;;;;;6.20;3.30;;;32.00;62.30;;;;;;5107652;28;20585;-75
2023/07/15 09:42:04;;;;;;;8.93;3.42;;;32.00;62.10;;;;;;5106811;27;20042;-77
2023/07/15 09:44:48;;;;;;;5.97;3.40;;;32.00;64.80;;;;;;5108466;28;20066;-75
2023/07/15 09:47:14;;;;;;;6.03;3.55;;;32.10;63.10;;;;;;5110138;28;20039;-77
2023/07/15 09:49:39;;;;;;;5.85;3.50;;;32.30;63.60;;;;;;5109782;27;20526;-75
2023/07/15 09:52:06;;;;;;;4.50;3.40;;;32.70;63.40;;;;;;5109387;27;20035;-77
2023/07/15 09:54:33;;;;;;;6.00;3.50;;;33.10;62.50;;;;;;5109275;27;20030;-76
2023/07/15 09:57:12;;;;;;;4.93;3.38;;;33.20;59.50;;;;;;5109002;28;20031;-75
2023/07/15 09:59:52;;;;;;;11.18;3.45;;;32.90;59.40;;;;;;5108093;28;20046;-76
2023/07/15 10:02:35;;;;;;;5.05;3.42;;;32.80;58.30;;;;;;5086077;28;20042;-78
2023/07/15 10:05:05;;;;;;;4.65;3.28;;;32.70;59.80;;;;;;5111270;28;20028;-74
2023/07/15 10:07:31;;;;;;;6.15;3.45;;;33.00;60.00;;;;;;5112187;28;20073;-77
2023/07/15 10:10:01;;;;;;;5.13;3.28;;;33.00;57.90;;;;;;5111977;28;20036;-75
2023/07/15 10:12:28;;;;;;;5.65;3.42;;;33.00;57.80;;;;;;5112777;27;20028;-77
2023/07/15 10:14:54;;;;;;;7.70;3.53;;;33.00;57.80;;;;;;5100940;28;20781;-80
2023/07/15 10:17:20;;;;;;;7.63;3.60;;;32.80;57.00;;;;;;5087688;28;20059;-77
2023/07/15 10:19:46;;;;;;;8.70;3.17;;;32.80;57.40;;;;;;5104408;27;20089;-76
2023/07/15 10:22:13;;;;;;;6.07;3.33;;;33.10;57.70;;;;;;5104662;27;20024;-75
2023/07/15 10:24:43;;;;;;;5.45;3.30;;;33.00;57.80;;;;;;5101260;28;20024;-76
2023/07/15 10:27:10;;;;;;;6.97;3.08;;;32.90;56.20;;;;;;5109192;28;20110;-76
2023/07/15 10:29:40;;;;;;;5.07;3.38;;;32.80;55.70;;;;;;5105585;28;20472;-73
2023/07/15 10:32:10;;;;;;;10.07;3.38;;;33.10;55.80;;;;;;5111235;27;20095;-73
2023/07/15 10:34:50;;;;;;;7.60;3.53;;;33.20;55.90;;;;;;5104345;27;20087;-77
2023/07/15 10:37:18;;;;;;;5.55;3.38;;;33.20;53.80;;;;;;5118392;27;20103;-71
2023/07/15 10:39:45;;;;;;;3.92;2.83;;;33.20;55.00;;;;;;5116648;27;20035;-73
2023/07/15 10:42:14;;;;;;;5.82;3.20;;;33.40;55.20;;;;;;5109939;27;20024;-75
2023/07/15 10:44:41;;;;;;;6.05;3.60;;;33.40;55.30;;;;;;5108584;27;20452;-75
2023/07/15 10:47:08;;;;;;;4.13;3.13;;;33.40;55.60;;;;;;5113966;27;20078;-74
2023/07/15 10:49:34;;;;;;;9.10;3.45;;;33.50;54.60;;;;;;5111828;27;20052;-73
2023/07/15 10:52:05;;;;;;;7.28;3.30;;;33.60;55.50;;;;;;5109534;28;20114;-73
2023/07/15 10:54:34;;;;;;;6.68;3.38;;;33.90;54.80;;;;;;5105921;27;20031;-75
2023/07/15 10:57:07;;;;;;;4.05;3.20;;;34.00;53.40;;;;;;5112066;27;20117;-71
2023/07/15 10:59:35;;;;;;;5.65;3.17;;;33.50;52.60;;;;;;5109726;27;20124;-72
2023/07/15 11:02:01;;;;;;;8.00;3.22;;;33.20;53.90;;;;;;5115465;27;20092;-75
2023/07/15 11:04:27;;;;;;;4.57;2.90;;;33.60;55.20;;;;;;5111925;27;20031;-72
2023/07/15 11:07:01;;;;;;;3.50;3.00;;;33.60;55.00;;;;;;5123212;27;20118;-72
2023/07/15 11:09:27;;;;;;;7.75;3.35;;;33.90;54.00;;;;;;5115379;27;20114;-71
2023/07/15 11:11:53;;;;;;;5.05;3.42;;;33.80;53.00;;;;;;5112205;27;20036;-71
2023/07/15 11:14:23;;;;;;;6.30;3.58;;;33.60;53.90;;;;;;5114405;27;20035;-73
2023/07/15 11:16:54;;;;;;;4.47;3.53;;;34.00;54.40;;;;;;5091663;28;20518;-75
2023/07/15 11:19:21;;;;;;;8.73;3.15;;;34.30;52.70;;;;;;5090391;28;20070;-74
2023/07/15 11:21:47;;;;;;;4.43;3.63;;;34.10;54.30;;;;;;5099686;27;20468;-75
2023/07/15 11:24:16;;;;;;;7.25;3.53;;;34.20;52.90;;;;;;5102480;28;20026;-74
2023/07/15 11:26:43;;;;;;;5.10;3.42;;;34.20;51.60;;;;;;5101092;28;20027;-76
2023/07/15 11:29:25;;;;;;;3.78;3.20;;;34.20;50.90;;;;;;5083899;28;20043;-74
2023/07/15 11:31:52;;;;;;;5.93;3.10;;;34.50;50.60;;;;;;5106796;28;20023;-76
2023/07/15 11:34:23;;;;;;;5.00;3.58;;;34.60;51.60;;;;;;5103228;28;20027;-75
2023/07/15 11:36:50;;;;;;;4.15;3.35;;;34.50;50.30;;;;;;5105356;27;20036;-76
2023/07/15 11:39:16;;;;;;;4.30;3.03;;;34.40;50.60;;;;;;5091289;28;20063;-75
2023/07/15 11:41:43;;;;;;;6.13;3.28;;;34.40;50.50;;;;;;5100765;28;20036;-75
2023/07/15 11:44:16;;;;;;;4.32;3.30;;;34.50;50.30;;;;;;5100506;28;20046;-74
2023/07/15 11:46:44;;;;;;;8.55;4.07;;;34.40;50.60;;;;;;5106651;28;20111;-76
2023/07/15 11:49:11;;;;;;;3.60;2.90;;;34.50;51.00;;;;;;5108876;28;20051;-75
2023/07/15 11:51:41;;;;;;;5.18;2.90;;;34.70;49.80;;;;;;5100103;28;20387;-74
2023/07/15 11:54:08;;;;;;;;;;;34.90;50.00;;;;;;5115779;27;20086;-73
2023/07/15 11:56:36;;;;;;;3.47;2.88;;;34.80;49.20;;;;;;5109771;28;20427;-77
2023/07/15 11:59:02;;;;;;;6.88;3.50;;;34.80;48.80;;;;;;5109019;28;20023;-74
2023/07/15 12:01:28;;;;;;;6.05;2.97;;;34.90;48.90;;;;;;5105219;27;20154;-73
2023/07/15 12:03:54;;;;;;;4.05;3.15;;;34.80;50.30;;;;;;5092908;28;20135;-75
2023/07/15 12:06:22;;;;;;;7.05;3.40;;;34.90;51.90;;;;;;5096669;28;20035;-74
2023/07/15 12:09:12;;;;;;;7.30;2.90;;;35.00;50.40;;;;;;5105401;28;20476;-75
2023/07/15 12:11:38;;;;;;;6.03;3.50;;;34.70;51.20;;;;;;5099079;27;20388;-75
2023/07/15 12:14:05;;;;;;;4.15;3.38;;;34.40;52.00;;;;;;5105914;28;20081;-75
2023/07/15 12:16:33;;;;;;;4.10;3.10;;;34.40;50.30;;;;;;5103678;28;20027;-74
2023/07/15 12:19:00;;;;;;;5.30;3.00;;;34.60;52.60;;;;;;5088926;28;20820;-73
2023/07/15 12:21:26;;;;;;;8.55;3.67;;;34.80;50.20;;;;;;5104588;28;20026;-75
2023/07/15 12:23:52;;;;;;;4.90;3.08;;;34.80;50.20;;;;;;5105120;27;20023;-76
2023/07/15 12:26:21;;;;;;;5.82;3.13;;;35.00;49.40;;;;;;5104384;27;20130;-75
2023/07/15 12:28:47;;;;;;;7.25;3.17;;;35.10;49.10;;;;;;5102167;28;20036;-75
2023/07/15 12:31:14;;;;;;;10.68;3.45;;;34.90;49.30;;;;;;5094287;28;20023;-76
2023/07/15 12:33:40;;;;;;;9.75;3.30;;;34.50;49.40;;;;;;5085540;28;20088;-77
2023/07/15 12:36:09;;;;;;;9.98;3.40;;;34.10;50.80;;;;;;5108612;28;20110;-74
2023/07/15 12:38:34;;;;;;;6.72;3.35;;;34.10;51.00;;;;;;5105267;28;20563;-79
2023/07/15 12:41:03;;;;;;;3.42;2.92;;;34.70;48.90;;;;;;5107639;28;20115;-76
2023/07/15 12:43:28;;;;;;;7.93;3.47;;;35.30;50.20;;;;;;5104624;28;20027;-76